Time;durP1;ratioP1;P1;durP2;ratioP2;P2;SDS_P1;SDS_P2;PMS_P1;PMS_P2;Temp;Humidity;BMP_temperature;BMP_pressure;BME280_temperature;BME280_humidity;BME280_pressure;Samples;Min_cycle;Max_cycle;Signal;HPM_P1;HPM_P2
2021/09/20 00:01:25;;;;;;;37.17;34.80;;;;;;;15.68;100.00;101905.23;1941328;74;33462;-76
2021/09/20 00:06:49;;;;;;;38.80;36.20;;;;;;;15.77;100.00;101907.12;1941223;74;32944;-68
2021/09/20 00:12:14;;;;;;;35.77;33.57;;;;;;;15.83;100.00;101904.52;1941244;74;32954;-75
2021/09/20 00:17:38;;;;;;;34.53;32.47;;;;;;;16.01;100.00;101899.30;1941183;74;32948;-68
2021/09/20 00:23:24;;;;;;;35.30;33.20;;;;;;;16.03;100.00;101907.70;1958243;72;33079;-74
2021/09/20 00:28:49;;;;;;;37.23;34.80;;;;;;;15.82;100.00;101904.83;1941117;74;33006;-76
2021/09/20 00:34:13;;;;;;;36.43;34.13;;;;;;;15.98;100.00;101908.31;1941114;74;33024;-75
2021/09/20 00:39:38;;;;;;;37.20;34.53;;;;;;;16.03;100.00;101912.47;1941184;74;33005;-68
2021/09/20 00:45:03;;;;;;;36.70;34.30;;;;;;;15.63;100.00;101922.08;1941352;74;31660;-76
2021/09/20 00:50:28;;;;;;;36.17;33.77;;;;;;;15.58;100.00;101929.12;1941087;74;33013;-68
2021/09/20 00:55:53;;;;;;;36.60;34.10;;;;;;;15.94;100.00;101932.73;1941230;74;33035;-75
2021/09/20 01:01:19;;;;;;;40.30;37.65;;;;;;;15.65;100.00;101934.69;1925414;74;28083;-68
2021/09/20 01:06:44;;;;;;;36.00;33.80;;;;;;;15.96;100.00;101940.02;1941077;74;33452;-75
2021/09/20 01:12:09;;;;;;;35.90;33.60;;;;;;;15.96;100.00;101939.42;1941126;74;32948;-76
2021/09/20 01:17:35;;;;;;;36.67;34.50;;;;;;;16.00;100.00;101936.33;1941245;74;31098;-76
2021/09/20 01:23:02;;;;;;;34.00;31.70;;;;;;;16.05;100.00;101929.81;1941293;74;31524;-75
2021/09/20 01:28:46;;;;;;;35.43;33.13;;;;;;;16.04;100.00;101930.96;2009821;71;30842;-68
2021/09/20 01:34:10;;;;;;;35.67;33.47;;;;;;;16.03;100.00;101931.53;1941349;74;33593;-68
2021/09/20 01:39:37;;;;;;;33.13;31.10;;;;;;;15.99;100.00;101919.23;1941203;74;31029;-68
2021/09/20 01:45:02;;;;;;;35.83;33.40;;;;;;;15.86;100.00;101926.37;1941164;74;31092;-68
2021/09/20 01:50:26;;;;;;;34.97;33.03;;;;;;;15.87;100.00;101923.81;1941178;74;31484;-68
2021/09/20 01:55:50;;;;;;;35.13;32.97;;;;;;;15.74;100.00;101932.09;1941029;74;31000;-68
2021/09/20 02:01:15;;;;;;;33.60;31.70;;;;;;;15.69;100.00;101927.92;1941150;74;33563;-75
2021/09/20 02:06:39;;;;;;;34.80;32.57;;;;;;;15.56;100.00;101923.83;1940996;74;32939;-68
2021/09/20 02:12:04;;;;;;;34.70;32.30;;;;;;;15.47;100.00;101928.34;1941000;74;31017;-69
2021/09/20 02:17:30;;;;;;;34.53;32.20;;;;;;;15.37;100.00;101934.85;1941202;74;33564;-75
2021/09/20 02:22:54;;;;;;;35.87;33.47;;;;;;;15.28;100.00;101943.59;1940944;74;33031;-75
2021/09/20 02:28:19;;;;;;;35.40;33.17;;;;;;;15.22;100.00;101945.33;1941033;74;33126;-76
2021/09/20 02:33:44;;;;;;;37.97;35.57;;;;;;;15.13;100.00;101945.10;1941032;74;33014;-68
2021/09/20 02:39:08;;;;;;;37.07;34.60;;;;;;;15.10;100.00;101950.45;1941259;74;33597;-75
2021/09/20 02:44:32;;;;;;;36.97;34.77;;;;;;;15.03;100.00;101950.19;1941022;74;33123;-75
2021/09/20 02:49:57;;;;;;;38.27;35.87;;;;;;;14.97;100.00;101956.92;1941182;74;33477;-76
2021/09/20 02:55:21;;;;;;;39.13;36.43;;;;;;;14.97;100.00;101962.52;1941085;74;32966;-68
2021/09/20 03:00:45;;;;;;;37.07;34.57;;;;;;;14.92;100.00;101965.37;1941239;74;33439;-68
2021/09/20 03:06:10;;;;;;;37.90;35.40;;;;;;;14.75;100.00;101976.08;1941028;74;33055;-76
2021/09/20 03:11:34;;;;;;;39.10;36.40;;;;;;;14.68;100.00;101988.67;1941088;74;33421;-68
2021/09/20 03:16:59;;;;;;;38.43;35.73;;;;;;;14.80;100.00;101987.81;1940987;74;32946;-68
2021/09/20 03:22:23;;;;;;;38.47;35.97;;;;;;;14.82;100.00;101992.54;1941148;74;33016;-68
2021/09/20 03:27:47;;;;;;;37.33;34.57;;;;;;;14.81;100.00;101990.86;1941243;74;33450;-68
2021/09/20 03:33:13;;;;;;;38.73;36.07;;;;;;;14.74;100.00;102000.97;1941041;74;32955;-75
2021/09/20 03:38:38;;;;;;;38.87;36.43;;;;;;;14.61;100.00;102009.12;1941225;74;33554;-69
2021/09/20 03:44:03;;;;;;;40.13;37.40;;;;;;;14.65;100.00;102004.62;1941068;74;32959;-69
2021/09/20 03:49:27;;;;;;;38.50;35.87;;;;;;;14.59;100.00;102016.37;1941251;74;33592;-68
2021/09/20 03:54:52;;;;;;;37.90;35.50;;;;;;;14.66;100.00;102013.30;1941205;74;33547;-68
2021/09/20 04:00:17;;;;;;;38.50;35.83;;;;;;;14.42;100.00;102011.11;1935548;74;39633;-76
2021/09/20 04:05:41;;;;;;;39.73;37.13;;;;;;;14.60;100.00;102018.06;1941224;74;32957;-68
2021/09/20 04:11:06;;;;;;;40.47;37.77;;;;;;;14.26;100.00;102024.81;1941011;74;32957;-68
2021/09/20 04:16:30;;;;;;;39.83;37.30;;;;;;;13.82;100.00;102030.70;1941001;74;32984;-75
2021/09/20 04:21:54;;;;;;;41.03;38.33;;;;;;;14.08;100.00;102039.34;1941173;74;33480;-68
2021/09/20 04:27:20;;;;;;;40.87;38.07;;;;;;;14.15;100.00;102044.11;1940990;74;32969;-76
2021/09/20 04:32:45;;;;;;;40.23;37.63;;;;;;;13.84;100.00;102040.47;1940949;74;33037;-76
2021/09/20 04:38:10;;;;;;;43.07;39.97;;;;;;;13.92;100.00;102049.69;1941096;74;32975;-68
2021/09/20 04:43:35;;;;;;;41.60;38.80;;;;;;;13.60;100.00;102044.36;1941026;74;33097;-76
2021/09/20 04:49:00;;;;;;;41.30;38.40;;;;;;;13.67;100.00;102051.91;1940927;74;33041;-75
2021/09/20 04:54:24;;;;;;;39.73;37.23;;;;;;;13.95;100.00;102053.87;1941236;74;33539;-75
2021/09/20 04:59:51;;;;;;;39.63;36.93;;;;;;;13.93;100.00;102057.52;1941189;74;33050;-76
2021/09/20 05:05:15;;;;;;;40.53;37.73;;;;;;;13.94;100.00;102058.65;1941093;74;33056;-68
2021/09/20 05:10:39;;;;;;;40.27;37.47;;;;;;;13.93;100.00;102070.09;1941050;74;32974;-68
2021/09/20 05:16:04;;;;;;;38.80;36.10;;;;;;;13.93;100.00;102074.28;1941293;74;33513;-68
2021/09/20 05:21:28;;;;;;;38.20;35.60;;;;;;;13.88;100.00;102079.30;1941019;74;32984;-68
2021/09/20 05:26:53;;;;;;;40.00;37.43;;;;;;;13.76;100.00;102086.27;1941160;74;32954;-75
2021/09/20 05:32:18;;;;;;;39.27;36.47;;;;;;;13.73;100.00;102086.27;1941051;74;33028;-68
2021/09/20 05:37:46;;;;;;;40.10;37.40;;;;;;;13.78;100.00;102100.22;1941201;74;33611;-76
2021/09/20 05:43:12;;;;;;;39.17;36.70;;;;;;;13.64;100.00;102108.87;1941011;74;32975;-69
2021/09/20 05:48:37;;;;;;;40.53;37.83;;;;;;;13.67;100.00;102117.52;1941162;74;33439;-75
2021/09/20 05:54:01;;;;;;;41.00;38.43;;;;;;;13.60;100.00;102125.33;1941038;74;32989;-69
2021/09/20 05:59:29;;;;;;;41.87;39.10;;;;;;;13.55;100.00;102128.66;1941250;74;33042;-68
2021/09/20 06:04:53;;;;;;;43.07;40.27;;;;;;;13.59;100.00;102136.21;1940961;74;32986;-75
2021/09/20 06:10:19;;;;;;;42.20;39.17;;;;;;;13.58;100.00;102143.45;1941022;74;33094;-76
2021/09/20 06:15:44;;;;;;;43.43;40.63;;;;;;;13.48;100.00;102140.61;1941260;74;33472;-68
2021/09/20 06:21:08;;;;;;;44.70;41.50;;;;;;;13.52;100.00;102151.55;1941012;74;33128;-75
2021/09/20 06:26:33;;;;;;;43.03;40.27;;;;;;;13.56;100.00;102154.08;1941080;74;33102;-69
2021/09/20 06:31:58;;;;;;;41.20;38.30;;;;;;;13.55;100.00;102167.73;1941188;74;33083;-68
2021/09/20 06:37:22;;;;;;;41.60;38.70;;;;;;;13.57;100.00;102173.88;1941203;74;33527;-75
2021/09/20 06:42:47;;;;;;;41.20;38.30;;;;;;;13.61;100.00;102177.25;1941210;74;32986;-75
2021/09/20 06:48:12;;;;;;;43.87;40.83;;;;;;;13.73;100.00;102183.17;1941062;74;32989;-72
2021/09/20 06:53:36;;;;;;;43.93;41.17;;;;;;;13.82;100.00;102196.89;1941004;74;33028;-65
2021/09/20 06:59:01;;;;;;;42.50;39.57;;;;;;;13.92;100.00;102206.68;1941062;74;32990;-74
2021/09/20 07:04:26;;;;;;;43.97;41.07;;;;;;;13.94;100.00;102208.10;1941179;74;33476;-68
2021/09/20 07:09:50;;;;;;;45.07;41.80;;;;;;;13.85;100.00;102213.09;1941008;74;32985;-76
2021/09/20 07:15:16;;;;;;;43.57;40.63;;;;;;;13.87;100.00;102216.44;1941074;74;33101;-69
2021/09/20 07:20:41;;;;;;;43.43;40.40;;;;;;;13.92;100.00;102227.63;1941057;74;32980;-77
2021/09/20 07:26:07;;;;;;;42.87;39.83;;;;;;;14.01;100.00;102228.78;1941250;74;33457;-68
2021/09/20 07:31:31;;;;;;;41.33;38.43;;;;;;;14.51;100.00;102233.66;1941337;74;33054;-67
2021/09/20 07:36:55;;;;;;;41.30;38.80;;;;;;;14.37;100.00;102233.94;1941033;74;33593;-70
2021/09/20 07:42:20;;;;;;;42.27;39.37;;;;;;;14.44;100.00;102236.75;1941218;74;32986;-78
2021/09/20 07:47:45;;;;;;;42.90;39.87;;;;;;;14.48;100.00;102239.27;1941221;74;33475;-78
2021/09/20 07:53:11;;;;;;;40.23;37.40;;;;;;;14.78;100.00;102239.84;1941274;74;33076;-70
2021/09/20 07:58:35;;;;;;;39.43;36.83;;;;;;;15.00;100.00;102236.76;1941177;74;32981;-78
2021/09/20 08:04:00;;;;;;;39.10;36.60;;;;;;;14.92;100.00;102247.13;1941223;74;33589;-78
2021/09/20 08:09:25;;;;;;;37.63;35.30;;;;;;;15.38;100.00;102239.49;1941007;74;33028;-78
2021/09/20 08:14:49;;;;;;;37.87;35.40;;;;;;;15.61;100.00;102238.91;1941276;74;33068;-77
2021/09/20 08:20:15;;;;;;;39.53;36.57;;;;;;;15.76;100.00;102248.64;1941305;74;32955;-78
2021/09/20 08:25:39;;;;;;;39.93;37.20;;;;;;;15.77;100.00;102259.30;1941229;74;33553;-71
2021/09/20 08:31:05;;;;;;;40.37;37.10;;;;;;;15.46;100.00;102263.55;1941069;74;32988;-71
2021/09/20 08:36:35;;;;;;;39.93;37.13;;;;;;;16.17;100.00;102287.13;1941084;74;32981;-72
2021/09/20 08:42:00;;;;;;;40.67;37.77;;;;;;;16.09;100.00;102289.13;1941081;74;32975;-80
2021/09/20 08:47:27;;;;;;;40.37;37.60;;;;;;;16.16;100.00;102297.25;1941087;74;32989;-81
2021/09/20 08:52:53;;;;;;;42.37;39.33;;;;;;;16.42;100.00;102298.80;1941013;74;32984;-81
2021/09/20 08:58:17;;;;;;;41.83;38.93;;;;;;;16.09;100.00;102302.34;1941092;74;33026;-71
2021/09/20 09:03:42;;;;;;;42.70;39.60;;;;;;;15.95;100.00;102304.91;1941110;74;31106;-78
2021/09/20 09:09:06;;;;;;;41.80;38.70;;;;;;;16.14;100.00;102317.70;1941265;74;33002;-78
2021/09/20 09:14:33;;;;;;;43.73;40.53;;;;;;;16.46;100.00;102320.09;1941040;74;33009;-78
2021/09/20 09:19:59;;;;;;;50.33;47.23;;;;;;;16.19;100.00;102318.53;1941247;74;33178;-71
2021/09/20 09:25:40;;;;;;;48.73;45.50;;;;;;;16.52;100.00;102329.57;1941206;74;33551;-70
2021/09/20 09:31:11;;;;;;;44.50;41.43;;;;;;;16.53;100.00;102328.45;1941267;74;32987;-72
2021/09/20 09:36:40;;;;;;;46.13;42.93;;;;;;;16.70;100.00;102326.14;1941236;74;32998;-79
2021/09/20 09:42:03;;;;;;;42.13;39.30;;;;;;;16.96;100.00;102339.43;1941178;74;31669;-70
2021/09/20 09:47:32;;;;;;;47.33;44.10;;;;;;;17.04;100.00;102326.73;1941152;74;31210;-70
2021/09/20 09:53:12;;;;;;;42.10;39.50;;;;;;;16.78;100.00;102328.32;1941163;74;31039;-70
2021/09/20 09:58:38;;;;;;;40.80;38.20;;;;;;;17.35;100.00;102331.53;1941041;74;31532;-78
2021/09/20 10:04:15;;;;;;;38.63;36.33;;;;;;;17.39;100.00;102325.59;1941325;74;31047;-77
2021/09/20 10:09:46;;;;;;;40.20;37.60;;;;;;;17.39;100.00;102323.62;1941290;74;31046;-70
2021/09/20 10:15:13;;;;;;;37.33;34.97;;;;;;;17.59;100.00;102312.77;1941093;74;31028;-78
2021/09/20 10:20:38;;;;;;;36.57;34.23;;;;;;;17.52;100.00;102310.28;1941088;74;31012;-79
2021/09/20 10:26:02;;;;;;;36.03;33.63;;;;;;;17.81;100.00;102313.09;1941039;74;31017;-70
2021/09/20 10:31:29;;;;;;;37.57;35.17;;;;;;;17.83;100.00;102312.80;1941067;74;31078;-79
2021/09/20 10:37:26;;;;;;;34.87;32.73;;;;;;;18.16;100.00;102313.23;1941346;74;31578;-70
2021/09/20 10:43:03;;;;;;;34.53;32.33;;;;;;;18.19;100.00;102306.43;1941346;74;33440;-70
2021/09/20 10:49:04;;;;;;;36.47;34.27;;;;;;;18.24;100.00;102308.91;1941209;74;31018;-77
2021/09/20 10:54:30;;;;;;;37.17;34.97;;;;;;;18.26;100.00;102301.86;1941081;74;31084;-77
2021/09/20 11:03:40;;;;;;;38.90;36.40;;;;;;;18.33;100.00;102313.56;2061155;69;30569;-77
2021/09/20 11:06:20;;;;;;;38.13;35.83;;;;;;;18.37;100.00;102321.67;1950676;73;24120;-69
2021/09/20 11:09:01;;;;;;;38.57;36.37;;;;;;;18.25;100.00;102331.69;2030642;71;24159;-69
2021/09/20 11:11:44;;;;;;;38.07;35.57;;;;;;;18.32;100.00;102323.70;2025836;71;24169;-78
2021/09/20 11:14:16;;;;;;;39.00;36.40;;;;;;;18.49;100.00;102331.06;2030864;70;24186;-78
2021/09/20 11:16:51;;;;;;;38.07;35.77;;;;;;;18.31;100.00;102334.72;2030643;71;24108;-78
2021/09/20 11:19:42;;;;;;;38.67;36.20;;;;;;;18.40;100.00;102328.69;2030748;71;24093;-70
2021/09/20 11:22:31;;;;;;;35.90;33.80;;;;;;;18.59;100.00;102325.34;2009521;70;24141;-77
2021/09/20 11:25:04;;;;;;;36.00;33.83;;;;;;;18.56;100.00;102325.39;1993836;72;24143;-69
2021/09/20 11:30:32;;;;;;;35.97;33.83;;;;;;;19.04;100.00;102318.98;1941210;74;31011;-76
2021/09/20 11:35:58;;;;;;;36.10;33.90;;;;;;;19.08;100.00;102318.64;1941241;74;31144;-75
2021/09/20 11:41:25;;;;;;;38.53;36.13;;;;;;;19.18;100.00;102327.50;1941091;74;31631;-76
2021/09/20 11:46:51;;;;;;;35.53;33.53;;;;;;;19.39;100.00;102322.34;1941232;74;30997;-70
2021/09/20 11:52:18;;;;;;;35.70;33.70;;;;;;;19.86;100.00;102321.20;1941145;74;31057;-75
2021/09/20 11:57:47;;;;;;;34.00;32.17;;;;;;;19.87;100.00;102316.67;1941290;74;30999;-77
2021/09/20 12:03:14;;;;;;;33.40;31.33;;;;;;;19.64;100.00;102328.15;1941363;74;31489;-75
2021/09/20 12:09:03;;;;;;;33.60;31.53;;;;;;;19.47;100.00;102328.14;2009788;71;30951;-70
2021/09/20 12:14:27;;;;;;;34.33;32.20;;;;;;;19.57;100.00;102327.12;1941320;74;31092;-77
2021/09/20 12:19:57;;;;;;;33.90;31.70;;;;;;;19.48;100.00;102327.57;1941300;74;31575;-70
2021/09/20 12:25:41;;;;;;;34.13;32.13;;;;;;;19.51;100.00;102332.61;1941074;74;31066;-70
2021/09/20 12:31:19;;;;;;;33.43;31.57;;;;;;;19.49;100.00;102336.30;1941404;74;31497;-76
2021/09/20 12:36:51;;;;;;;33.43;31.73;;;;;;;19.63;100.00;102338.59;1941310;74;33530;-70
2021/09/20 12:42:20;;;;;;;34.70;32.73;;;;;;;19.40;100.00;102350.23;1941246;74;31083;-70
2021/09/20 12:47:46;;;;;;;33.47;31.67;;;;;;;19.58;100.00;102363.20;1941310;74;31055;-70
2021/09/20 12:53:13;;;;;;;34.80;32.70;;;;;;;19.67;100.00;102368.40;1941329;74;31143;-77
2021/09/20 12:58:46;;;;;;;34.60;32.50;;;;;;;19.56;100.00;102377.59;1941267;74;31566;-70
2021/09/20 13:04:07;;;;;;;32.43;30.63;;;;;;;19.79;100.00;102376.63;1941220;74;31128;-77
2021/09/20 13:09:57;;;;;;;32.70;30.80;;;;;;;19.72;100.00;102384.66;2010071;71;30863;-78
2021/09/20 13:15:31;;;;;;;32.93;31.17;;;;;;;19.60;100.00;102386.27;1941306;74;31531;-77
2021/09/20 13:20:56;;;;;;;29.90;28.30;;;;;;;19.73;100.00;102384.06;1941280;74;31009;-77
2021/09/20 13:26:37;;;;;;;32.17;30.47;;;;;;;19.91;100.00;102384.00;1941230;74;31088;-77
2021/09/20 13:32:02;;;;;;;32.63;30.87;;;;;;;19.68;100.00;102388.41;1941091;74;31065;-77
2021/09/20 13:37:27;;;;;;;32.90;31.10;;;;;;;19.54;100.00;102390.61;1941243;74;33469;-70
2021/09/20 13:42:52;;;;;;;34.30;32.27;;;;;;;19.32;100.00;102390.95;1941279;74;31016;-68
2021/09/20 13:48:37;;;;;;;34.23;32.33;;;;;;;19.43;100.00;102402.34;2009819;71;30852;-70
2021/09/20 13:54:04;;;;;;;34.10;32.30;;;;;;;19.26;100.00;102399.22;1941060;74;31071;-77
2021/09/20 13:59:29;;;;;;;34.47;32.67;;;;;;;19.04;100.00;102396.45;1941271;74;31520;-70
2021/09/20 14:05:14;;;;;;;36.07;33.90;;;;;;;19.23;100.00;102389.97;2009936;70;30861;-77
2021/09/20 14:10:39;;;;;;;34.03;32.03;;;;;;;19.35;100.00;102397.38;1941275;74;31480;-76
2021/09/20 14:16:24;;;;;;;32.37;30.67;;;;;;;19.49;100.00;102399.72;2009925;71;30832;-77
2021/09/20 14:21:55;;;;;;;32.00;30.23;;;;;;;19.54;100.00;102394.84;1941051;74;31036;-69
2021/09/20 14:27:39;;;;;;;30.77;28.97;;;;;;;19.75;100.00;102399.54;2004465;71;30793;-69
2021/09/20 14:33:26;;;;;;;32.67;30.97;;;;;;;19.94;100.00;102391.83;2015282;71;30873;-74
2021/09/20 14:38:56;;;;;;;33.83;32.03;;;;;;;20.00;100.00;102390.59;1941005;74;31022;-77
2021/09/20 14:44:22;;;;;;;32.33;30.60;;;;;;;20.00;100.00;102391.17;1941069;74;31596;-77
2021/09/20 14:49:50;;;;;;;32.87;30.97;;;;;;;20.13;100.00;102400.80;1941064;74;31076;-77
2021/09/20 14:55:14;;;;;;;30.77;29.07;;;;;;;20.35;100.00;102404.61;1941114;74;31509;-70
2021/09/20 15:00:39;;;;;;;31.63;29.90;;;;;;;20.34;100.00;102400.67;1941253;74;31008;-70
2021/09/20 15:06:07;;;;;;;34.47;32.57;;;;;;;20.51;100.00;102402.30;1941404;74;31607;-71
2021/09/20 15:11:32;;;;;;;33.70;31.83;;;;;;;20.48;100.00;102403.50;1941081;74;31004;-71
2021/09/20 15:16:56;;;;;;;28.53;26.97;;;;;;;20.39;100.00;102403.41;1941048;74;31025;-72
2021/09/20 15:22:41;;;;;;;33.23;31.33;;;;;;;20.18;100.00;102411.41;2009696;71;30879;-75
2021/09/20 15:28:07;;;;;;;35.90;33.88;;;;;;;19.85;100.00;102420.48;1941096;74;31144;-79
2021/09/20 15:33:34;;;;;;;32.30;30.50;;;;;;;20.07;100.00;102424.62;1941091;74;31525;-79
2021/09/20 15:39:19;;;;;;;31.07;29.47;;;;;;;20.20;100.00;102424.62;1991846;71;33306;-77
2021/09/20 15:44:43;;;;;;;28.57;26.93;;;;;;;20.33;100.00;102424.41;1941314;74;31525;-71
2021/09/20 15:50:10;;;;;;;29.77;28.13;;;;;;;20.58;100.00;102423.87;1941589;74;31497;-70
2021/09/20 15:55:37;;;;;;;28.77;27.13;;;;;;;20.58;100.00;102435.16;1941067;74;31065;-74
2021/09/20 16:01:03;;;;;;;28.30;26.80;;;;;;;20.71;100.00;102437.75;1941100;74;31133;-77
2021/09/20 16:06:48;;;;;;;27.30;26.00;;;;;;;20.48;100.00;102447.27;2004880;71;30849;-68
2021/09/20 16:12:14;;;;;;;28.30;26.83;;;;;;;20.33;100.00;102447.82;1941187;74;31093;-70
2021/09/20 16:17:45;;;;;;;29.60;28.00;;;;;;;20.42;100.00;102442.28;1941143;74;31045;-69
2021/09/20 16:23:31;;;;;;;31.43;29.53;;;;;;;20.11;100.00;102451.88;2010274;71;30912;-76
2021/09/20 16:28:56;;;;;;;32.13;30.43;;;;;;;20.00;100.00;102455.48;1941449;74;31543;-72
2021/09/20 16:34:41;;;;;;;32.83;31.00;;;;;;;19.71;100.00;102466.73;2009904;71;30846;-69
2021/09/20 16:40:08;;;;;;;32.53;30.93;;;;;;;19.88;100.00;102462.77;1941262;74;31010;-78
2021/09/20 16:45:53;;;;;;;33.97;31.87;;;;;;;19.96;100.00;102462.05;2013223;71;30856;-76
2021/09/20 16:51:20;;;;;;;32.70;31.00;;;;;;;19.78;100.00;102474.20;1941120;74;31049;-76
2021/09/20 16:56:52;;;;;;;35.43;33.37;;;;;;;20.06;100.00;102476.55;1941065;74;31080;-78
2021/09/20 17:02:22;;;;;;;32.57;30.67;;;;;;;20.06;100.00;102478.80;1918141;71;91566;-75
2021/09/20 17:07:48;;;;;;;32.93;30.93;;;;;;;20.11;100.00;102479.29;1941503;74;31633;-75
2021/09/20 17:13:12;;;;;;;34.10;32.17;;;;;;;19.79;100.00;102484.35;1941449;74;30995;-76
2021/09/20 17:18:43;;;;;;;35.87;33.97;;;;;;;19.35;100.00;102483.33;1941503;74;33601;-77
2021/09/20 17:24:10;;;;;;;36.33;34.13;;;;;;;19.06;100.00;102500.38;1941297;74;31018;-74
2021/09/20 17:29:35;;;;;;;36.93;34.83;;;;;;;19.06;100.00;102499.81;1941252;74;31015;-74
2021/09/20 17:35:03;;;;;;;37.67;35.57;;;;;;;18.93;100.00;102501.11;1941466;74;33448;-77
2021/09/20 17:40:47;;;;;;;39.47;37.07;;;;;;;18.87;100.00;102520.05;2013775;71;30892;-75
2021/09/20 17:46:31;;;;;;;38.70;36.40;;;;;;;18.75;100.00;102529.49;2004463;71;31001;-79
2021/09/20 17:51:56;;;;;;;37.83;35.53;;;;;;;18.75;100.00;102532.87;1941345;74;31096;-79
2021/09/20 17:57:23;;;;;;;43.40;41.00;;;;;;;18.74;100.00;102551.73;1941360;74;31079;-76
2021/09/20 18:03:10;;;;;;;44.23;41.80;;;;;;;18.75;100.00;102552.02;1999316;71;33307;-77
2021/09/20 18:08:35;;;;;;;44.10;41.50;;;;;;;18.66;100.00;102552.39;1941596;74;31142;-77
2021/09/20 18:13:59;;;;;;;41.03;38.83;;;;;;;18.65;100.00;102563.41;1941482;74;31111;-74
2021/09/20 18:19:25;;;;;;;42.53;39.87;;;;;;;18.57;100.00;102560.66;1941569;74;31570;-76
2021/09/20 18:25:11;;;;;;;42.20;39.90;;;;;;;18.52;100.00;102569.70;2006214;71;30983;-77
2021/09/20 18:30:55;;;;;;;42.80;40.40;;;;;;;18.36;100.00;102576.03;1995665;71;30842;-75
2021/09/20 18:36:42;;;;;;;42.33;39.93;;;;;;;18.25;100.00;102593.31;2010486;71;31016;-76
2021/09/20 18:42:26;;;;;;;40.77;38.47;;;;;;;18.30;100.00;102599.74;1980348;72;31102;-75
2021/09/20 18:47:51;;;;;;;40.60;38.30;;;;;;;18.25;100.00;102608.78;1941503;74;31236;-76
2021/09/20 18:53:16;;;;;;;41.30;38.63;;;;;;;18.14;100.00;102626.33;1941558;74;31045;-74
2021/09/20 18:58:41;;;;;;;43.13;40.77;;;;;;;18.02;100.00;102630.05;1941552;74;33495;-73
2021/09/20 19:04:25;;;;;;;43.70;41.27;;;;;;;17.83;100.00;102638.34;2012172;71;30915;-75
2021/09/20 19:09:52;;;;;;;43.07;40.47;;;;;;;17.59;100.00;102649.43;1941613;74;31554;-75
2021/09/20 19:15:36;;;;;;;42.43;39.53;;;;;;;17.53;100.00;102667.43;2001161;71;30859;-79
2021/09/20 19:21:09;;;;;;;43.33;40.43;;;;;;;17.60;100.00;102679.78;1941709;74;31619;-78
2021/09/20 19:26:59;;;;;;;44.03;41.20;;;;;;;17.46;100.00;102675.87;2002842;71;30905;-77
2021/09/20 19:32:23;;;;;;;44.07;41.13;;;;;;;17.52;100.00;102688.22;1941307;74;31129;-76
2021/09/20 19:37:49;;;;;;;41.50;38.70;;;;;;;17.40;100.00;102696.70;1941342;74;31120;-75
2021/09/20 19:43:12;;;;;;;45.03;42.13;;;;;;;17.30;100.00;102708.80;1941343;74;31049;-77
2021/09/20 19:48:37;;;;;;;45.93;42.80;;;;;;;17.10;100.00;102710.27;1941410;74;31054;-79
2021/09/20 19:54:23;;;;;;;43.97;40.90;;;;;;;17.03;100.00;102722.38;2006116;71;30944;-77
2021/09/20 19:59:47;;;;;;;42.80;39.57;;;;;;;16.93;100.00;102730.23;1941367;74;33628;-76
2021/09/20 20:05:31;;;;;;;44.40;41.10;;;;;;;16.84;100.00;102743.16;2017227;71;31563;-79
2021/09/20 20:10:57;;;;;;;45.07;41.80;;;;;;;16.69;100.00;102752.40;1941569;74;31091;-80
2021/09/20 20:16:25;;;;;;;43.83;40.87;;;;;;;16.68;100.00;102746.53;1941491;74;31544;-76
2021/09/20 20:21:50;;;;;;;43.67;40.57;;;;;;;16.62;100.00;102749.05;1941468;74;33529;-77
2021/09/20 20:27:35;;;;;;;45.20;42.10;;;;;;;16.43;100.00;102756.86;2017322;71;30906;-78
2021/09/20 20:33:02;;;;;;;44.53;41.43;;;;;;;16.39;100.00;102758.80;1941629;74;33268;-76
2021/09/20 20:38:27;;;;;;;45.63;42.43;;;;;;;16.32;100.00;102769.45;1941276;74;33088;-77
2021/09/20 20:44:15;;;;;;;44.47;41.23;;;;;;;16.22;100.00;102778.39;2010011;71;32890;-78
2021/09/20 20:49:40;;;;;;;43.67;40.70;;;;;;;16.12;100.00;102776.98;1941326;74;31131;-76
2021/09/20 20:55:06;;;;;;;44.03;41.03;;;;;;;16.05;100.00;102781.98;1941539;74;31599;-77
2021/09/20 21:00:37;;;;;;;44.40;40.83;;;;;;;16.19;100.00;102779.80;1941372;74;33124;-77
2021/09/20 21:06:08;;;;;;;43.77;40.67;;;;;;;15.87;100.00;102793.15;1941331;74;33082;-77
2021/09/20 21:11:33;;;;;;;45.73;42.60;;;;;;;15.71;100.00;102806.77;1941332;74;33003;-76
2021/09/20 21:16:57;;;;;;;44.63;41.43;;;;;;;15.67;100.00;102816.84;1941335;74;31102;-75
2021/09/20 21:22:41;;;;;;;45.10;42.20;;;;;;;15.62;100.00;102823.81;2013566;71;32886;-78
2021/09/20 21:28:26;;;;;;;50.50;47.05;;;;;;;15.67;100.00;102830.30;2000549;71;28049;-74
2021/09/20 21:33:57;;;;;;;46.53;43.43;;;;;;;15.95;100.00;102844.48;1941316;74;33059;-75
2021/09/20 21:39:21;;;;;;;48.30;44.67;;;;;;;16.12;100.00;102847.08;1941344;74;31634;-76
2021/09/20 21:44:45;;;;;;;45.83;42.83;;;;;;;16.19;100.00;102854.10;1941380;74;31165;-73
2021/09/20 21:50:13;;;;;;;45.27;42.17;;;;;;;15.91;100.00;102855.40;1941553;74;31135;-73
2021/09/20 21:55:38;;;;;;;43.70;40.63;;;;;;;16.04;100.00;102878.44;1941316;74;31046;-74
2021/09/20 22:01:05;;;;;;;50.30;46.43;;;;;;;16.25;100.00;102874.61;1941323;74;31162;-74
2021/09/20 22:06:30;;;;;;;49.40;45.67;;;;;;;16.19;100.00;102865.88;1941373;74;31568;-74
2021/09/20 22:11:57;;;;;;;47.70;44.20;;;;;;;16.13;100.00;102880.42;1941465;74;31137;-75
2021/09/20 22:17:22;;;;;;;46.40;43.07;;;;;;;15.75;100.00;102886.38;1941418;74;31056;-76
2021/09/20 22:22:46;;;;;;;46.53;43.23;;;;;;;15.87;100.00;102885.05;1941399;74;33087;-74
2021/09/20 22:28:11;;;;;;;45.97;42.57;;;;;;;15.68;100.00;102881.03;1941632;74;31099;-74
2021/09/20 22:33:43;;;;;;;44.57;41.27;;;;;;;15.81;100.00;102890.91;1941411;74;33058;-73
2021/09/20 22:39:08;;;;;;;44.97;41.83;;;;;;;15.71;100.00;102886.08;1941495;74;33130;-75
2021/09/20 22:44:33;;;;;;;44.80;41.60;;;;;;;15.66;100.00;102893.05;1941285;74;33061;-74
2021/09/20 22:49:58;;;;;;;43.87;40.73;;;;;;;15.62;100.00;102894.70;1941254;74;33000;-73
2021/09/20 22:55:45;;;;;;;46.87;43.50;;;;;;;15.34;100.00;102898.67;2010363;71;32948;-74
2021/09/20 23:01:10;;;;;;;44.77;41.77;;;;;;;15.03;100.00;102889.70;1941306;74;33659;-74
2021/09/20 23:06:34;;;;;;;44.20;40.90;;;;;;;14.87;100.00;102895.72;1941258;74;33484;-74
2021/09/20 23:11:59;;;;;;;45.97;42.47;;;;;;;14.81;100.00;102903.76;1941275;74;33067;-74
2021/09/20 23:17:25;;;;;;;45.50;42.20;;;;;;;14.69;100.00;102903.63;1941273;74;33076;-74
2021/09/20 23:22:51;;;;;;;45.03;41.83;;;;;;;14.56;100.00;102915.52;1941264;74;33042;-75
2021/09/20 23:28:17;;;;;;;46.33;42.87;;;;;;;14.95;100.00;102916.78;1941282;74;33090;-74
2021/09/20 23:33:41;;;;;;;43.83;40.70;;;;;;;14.92;100.00;102927.96;1941497;74;33481;-73
2021/09/20 23:39:06;;;;;;;44.43;41.30;;;;;;;14.73;100.00;102921.02;1941259;74;33564;-74
2021/09/20 23:44:31;;;;;;;43.33;40.13;;;;;;;14.59;100.00;102934.56;1941522;74;33625;-74
2021/09/20 23:49:55;;;;;;;40.30;37.30;;;;;;;14.40;100.00;102937.97;1941473;74;33530;-74
2021/09/20 23:55:20;;;;;;;42.97;39.97;;;;;;;14.62;100.00;102919.78;1941308;74;33005;-74
